Holcombville, New York
Current Conditions -  °F | °C
As of 2:53 PM on Thursday 18 Dec 2014 (Local Time) from KGFL Reporting Station
Overcast Overcast  
Wind Chill: 33°   Ceiling: 3700
Heat Index: 38°   Visibility: 10mi
Dew Point: 25°   Wind: 6mph
Humidity: 60%   Direction: 260°W
Pressure: 29.86"   Gusts: NA
Location:  43.7289°N, 73.9027°W
Report Text: KGFL 181953Z AUTO 26005KT 10SM OVC037 03/M04 A2986 RMK AO2 SLP119 T00331039
Loading
Personal Weather Stations






























Interactive Weather Map New forecast layout! Learn more

10-Day Weather Forecast

Advertisements
Track Severe Weather on mobile